createdAt,value
2024-03-13T00:00:17.210Z,9.67
2024-03-13T00:02:49.492Z,9.67
2024-03-13T00:05:20.830Z,9.62
2024-03-13T00:07:51.539Z,9.70
2024-03-13T00:10:19.701Z,9.74
2024-03-13T00:12:47.712Z,9.73
2024-03-13T00:15:15.671Z,9.79
2024-03-13T00:17:46.070Z,9.75
2024-03-13T00:20:14.230Z,9.78
2024-03-13T00:22:42.843Z,9.82
2024-03-13T00:25:13.010Z,9.78
2024-03-13T00:27:43.478Z,9.88
2024-03-13T00:30:11.960Z,9.85
2024-03-13T00:32:40.089Z,9.91
2024-03-13T00:35:08.631Z,9.89
2024-03-13T00:37:36.938Z,9.91
2024-03-13T00:40:05.967Z,9.95
2024-03-13T00:42:35.221Z,10.02
2024-03-13T00:45:03.979Z,10.02
2024-03-13T00:47:32.952Z,10.03
2024-03-13T00:50:00.932Z,10.06
2024-03-13T00:52:30.087Z,10.05
2024-03-13T00:54:58.350Z,10.09
2024-03-13T00:57:28.333Z,10.09
2024-03-13T00:59:59.896Z,10.11
2024-03-13T01:02:27.853Z,10.11
2024-03-13T01:04:56.073Z,10.15
2024-03-13T01:07:24.540Z,10.12
2024-03-13T01:09:52.695Z,10.16
2024-03-13T01:12:20.920Z,10.19
2024-03-13T01:14:48.797Z,10.16
2024-03-13T01:17:18.977Z,10.15
2024-03-13T01:19:48.196Z,10.16
2024-03-13T01:22:18.935Z,10.19
2024-03-13T01:24:47.946Z,10.22
2024-03-13T01:27:15.850Z,10.22
2024-03-13T01:29:47.803Z,10.26
2024-03-13T01:32:17.363Z,10.22
2024-03-13T01:34:47.921Z,10.20
2024-03-13T01:40:20.926Z,10.20
2024-03-13T01:43:06.877Z,10.23
2024-03-13T01:46:29.639Z,10.22
2024-03-13T01:49:15.425Z,10.22
2024-03-13T01:52:02.429Z,10.25
2024-03-13T01:54:47.801Z,10.28
2024-03-13T01:57:16.943Z,10.26
2024-03-13T02:00:18.695Z,10.25
2024-03-13T02:02:46.649Z,10.28
2024-03-13T02:05:15.480Z,10.25
2024-03-13T02:07:45.296Z,10.28
2024-03-13T02:10:13.218Z,10.29
2024-03-13T02:12:41.339Z,10.30
2024-03-13T02:15:09.645Z,10.26
2024-03-13T02:17:38.980Z,10.25
2024-03-13T02:20:09.201Z,10.26
2024-03-13T02:22:38.863Z,10.22
2024-03-13T02:25:07.016Z,10.32
2024-03-13T02:27:34.433Z,10.26
2024-03-13T02:30:02.449Z,10.28
2024-03-13T02:32:31.582Z,10.33
2024-03-13T02:34:59.759Z,10.29
2024-03-13T02:37:27.904Z,10.30
2024-03-13T02:39:56.358Z,10.33
2024-03-13T02:42:24.327Z,10.28
2024-03-13T02:44:52.385Z,10.28
2024-03-13T02:47:20.466Z,10.28
2024-03-13T02:49:48.764Z,10.29
2024-03-13T02:52:17.002Z,10.28
2024-03-13T02:54:45.251Z,10.26
2024-03-13T02:57:15.881Z,10.28
2024-03-13T02:59:43.904Z,10.26
2024-03-13T03:02:12.195Z,10.22
2024-03-13T03:04:40.338Z,10.23
2024-03-13T03:07:08.739Z,10.19
2024-03-13T03:09:36.802Z,10.23
2024-03-13T03:12:10.321Z,10.29
2024-03-13T03:14:38.411Z,10.28
2024-03-13T03:17:07.953Z,10.25
2024-03-13T03:19:36.195Z,10.22
2024-03-13T03:22:04.784Z,10.26
2024-03-13T03:24:33.005Z,10.28
2024-03-13T03:27:01.055Z,10.26
2024-03-13T03:29:29.078Z,10.20
2024-03-13T03:31:57.163Z,10.23
2024-03-13T03:34:25.548Z,10.26
2024-03-13T03:36:53.975Z,10.22
2024-03-13T03:39:26.227Z,10.26
2024-03-13T03:41:54.519Z,10.28
2024-03-13T03:44:23.067Z,10.23
2024-03-13T03:46:51.140Z,10.20
2024-03-13T03:49:19.150Z,10.23
2024-03-13T03:51:47.684Z,10.23
2024-03-13T03:54:15.717Z,10.25
2024-03-13T03:56:44.809Z,10.23
2024-03-13T03:59:12.918Z,10.26
2024-03-13T04:01:43.103Z,10.22
2024-03-13T04:04:11.570Z,10.22
2024-03-13T04:06:40.781Z,10.28
2024-03-13T04:09:16.170Z,10.23
2024-03-13T04:11:45.004Z,10.19
2024-03-13T04:14:13.403Z,10.18
2024-03-13T04:16:42.677Z,10.19
2024-03-13T04:19:12.104Z,10.19
2024-03-13T04:21:40.376Z,10.15
2024-03-13T04:24:08.806Z,10.22
2024-03-13T04:26:41.550Z,10.16
2024-03-13T04:29:12.217Z,10.19
2024-03-13T04:31:41.350Z,10.15
2024-03-13T04:34:11.521Z,10.13
2024-03-13T04:36:40.194Z,10.13
2024-03-13T04:39:08.847Z,10.09
2024-03-13T04:41:41.160Z,10.09
2024-03-13T04:44:11.003Z,10.08
2024-03-13T04:46:40.050Z,10.06
2024-03-13T04:49:09.932Z,10.08
2024-03-13T04:51:38.960Z,10.03
2024-03-13T04:54:08.451Z,10.03
2024-03-13T04:56:36.425Z,10.02
2024-03-13T04:59:04.523Z,10.01
2024-03-13T05:01:32.575Z,9.99
2024-03-13T05:04:00.761Z,9.99
2024-03-13T05:06:28.956Z,9.98
2024-03-13T05:08:57.079Z,9.95
2024-03-13T05:11:25.242Z,9.98
2024-03-13T05:13:55.676Z,9.98
2024-03-13T05:16:24.679Z,9.99
2024-03-13T05:18:53.811Z,9.95
2024-03-13T05:21:22.853Z,9.97
2024-03-13T05:23:50.950Z,9.97
2024-03-13T05:26:18.963Z,9.92
2024-03-13T05:31:33.066Z,9.89
2024-03-13T05:34:01.470Z,9.94
2024-03-13T05:36:29.686Z,10.69
2024-03-13T05:38:58.946Z,11.45
2024-03-13T05:41:27.114Z,11.59
2024-03-13T05:43:55.055Z,11.48
2024-03-13T05:46:24.096Z,11.06
2024-03-13T05:48:52.374Z,10.81
2024-03-13T05:51:24.064Z,10.94
2024-03-13T05:53:52.272Z,11.08
2024-03-13T05:56:22.276Z,11.12
2024-03-13T05:58:50.364Z,10.93
2024-03-13T06:01:23.627Z,11.18
2024-03-13T06:03:54.729Z,11.30
2024-03-13T06:06:23.486Z,11.31
2024-03-13T06:08:51.661Z,11.32
2024-03-13T06:11:20.405Z,11.51
2024-03-13T06:13:48.503Z,11.41
2024-03-13T06:16:16.763Z,11.15
2024-03-13T06:18:45.036Z,11.10
2024-03-13T06:21:12.991Z,11.06
2024-03-13T06:23:49.289Z,10.94
2024-03-13T06:26:19.312Z,10.61
2024-03-13T06:29:05.141Z,10.91
2024-03-13T06:31:34.789Z,11.00
2024-03-13T06:34:03.110Z,11.11
2024-03-13T06:36:31.268Z,11.04
2024-03-13T06:38:59.426Z,11.14
2024-03-13T06:41:27.798Z,11.07
2024-03-13T06:43:56.097Z,11.03
2024-03-13T06:46:25.662Z,11.24
2024-03-13T06:48:54.179Z,11.42
2024-03-13T06:51:22.408Z,11.34
2024-03-13T06:53:50.449Z,11.43
2024-03-13T06:56:18.635Z,11.49
2024-03-13T06:58:47.441Z,11.65
2024-03-13T07:01:15.758Z,11.68
2024-03-13T07:03:43.938Z,11.62
2024-03-13T07:06:13.238Z,11.73
2024-03-13T07:08:41.503Z,11.63
2024-03-13T07:11:09.505Z,11.45
2024-03-13T07:13:37.548Z,11.49
2024-03-13T07:16:06.555Z,11.55
2024-03-13T07:18:34.653Z,11.54
2024-03-13T07:21:03.533Z,11.34
2024-03-13T07:23:31.492Z,11.08
2024-03-13T07:26:00.803Z,11.10
2024-03-13T07:28:28.925Z,11.00
2024-03-13T07:30:58.573Z,11.12
2024-03-13T07:33:26.573Z,10.89
2024-03-13T07:35:54.771Z,11.06
2024-03-13T07:38:22.716Z,11.10
2024-03-13T07:40:50.791Z,11.17
2024-03-13T07:43:18.916Z,11.08
2024-03-13T07:45:47.472Z,11.18
2024-03-13T07:48:15.679Z,11.28
2024-03-13T07:50:43.745Z,11.41
2024-03-13T07:53:11.952Z,11.38
2024-03-13T07:55:40.292Z,11.25
2024-03-13T07:58:08.569Z,11.06
2024-03-13T08:00:37.556Z,11.17
2024-03-13T08:03:05.913Z,11.34
2024-03-13T08:05:34.226Z,11.15
2024-03-13T09:06:15.414Z,12.14
2024-03-13T09:08:48.380Z,12.24
2024-03-13T09:11:19.182Z,12.03
2024-03-13T09:13:47.274Z,11.97
2024-03-13T09:16:15.512Z,12.14
2024-03-13T09:18:43.700Z,12.29
2024-03-13T09:21:13.426Z,12.44
2024-03-13T09:23:41.699Z,12.34
2024-03-13T09:26:11.497Z,12.31
2024-03-13T09:28:40.044Z,12.23
2024-03-13T09:31:10.923Z,12.38
2024-03-13T09:33:39.216Z,12.64
2024-03-13T09:36:09.344Z,12.72
2024-03-13T09:38:37.558Z,13.02
2024-03-13T09:41:09.872Z,13.11
2024-03-13T09:43:38.423Z,13.19
2024-03-13T09:46:06.592Z,13.18
2024-03-13T09:48:35.697Z,13.02
2024-03-13T09:51:07.087Z,12.57
2024-03-13T09:53:36.703Z,12.60
2024-03-13T09:56:05.631Z,12.77
2024-03-13T09:58:33.624Z,13.02
2024-03-13T10:01:01.723Z,12.92
2024-03-13T10:03:29.917Z,12.81
2024-03-13T10:05:58.234Z,12.78
2024-03-13T10:08:26.270Z,13.08
2024-03-13T10:10:54.440Z,13.06
2024-03-13T10:13:22.570Z,13.33
2024-03-13T10:15:50.673Z,13.47
2024-03-13T10:18:19.334Z,13.53
2024-03-13T10:20:48.357Z,13.45
2024-03-13T10:23:16.570Z,13.27
2024-03-13T10:25:45.613Z,13.13
2024-03-13T10:28:17.650Z,13.54
2024-03-13T10:30:48.477Z,13.42
2024-03-13T10:33:16.607Z,13.50
2024-03-13T10:35:44.958Z,13.76
2024-03-13T10:38:13.775Z,14.28
2024-03-13T10:40:42.826Z,15.06
2024-03-13T10:43:12.054Z,14.72
2024-03-13T10:45:40.160Z,14.85
2024-03-13T10:48:09.225Z,14.73
2024-03-13T10:50:37.566Z,14.56
2024-03-13T10:53:06.736Z,14.05
2024-03-13T10:55:36.718Z,13.81
2024-03-13T10:58:04.889Z,13.53
2024-03-13T11:00:33.049Z,13.38
2024-03-13T11:03:01.086Z,13.27
2024-03-13T11:05:29.244Z,13.12
2024-03-13T11:07:58.109Z,12.98
2024-03-13T11:10:26.303Z,12.94
2024-03-13T11:12:54.530Z,13.06
2024-03-13T11:15:23.074Z,12.99
2024-03-13T11:18:10.535Z,12.80
2024-03-13T11:20:38.833Z,12.85
2024-03-13T11:23:07.718Z,12.81
2024-03-13T11:25:36.042Z,13.01
2024-03-13T11:28:04.498Z,13.42
2024-03-13T11:30:32.824Z,14.52
2024-03-13T11:33:00.956Z,15.69
2024-03-13T11:35:29.390Z,15.33
2024-03-13T11:38:01.541Z,14.83
2024-03-13T11:40:34.556Z,13.91
2024-03-13T11:43:04.301Z,13.43
2024-03-13T11:45:34.019Z,13.20
2024-03-13T11:48:02.796Z,13.29
2024-03-13T11:50:32.256Z,13.25
2024-03-13T11:53:08.429Z,13.26
2024-03-13T11:55:36.951Z,12.85
2024-03-13T11:58:07.863Z,13.02
2024-03-13T12:00:36.213Z,13.19
2024-03-13T12:03:04.496Z,13.09
2024-03-13T12:05:36.585Z,13.08
2024-03-13T12:08:05.282Z,13.23
2024-03-13T12:10:33.856Z,13.11
2024-03-13T12:13:01.835Z,13.15
2024-03-13T12:15:29.914Z,13.13
2024-03-13T12:17:58.458Z,13.08
2024-03-13T12:20:29.767Z,13.05
2024-03-13T12:22:58.060Z,13.15
2024-03-13T12:25:26.108Z,13.29
2024-03-13T12:27:54.802Z,13.42
2024-03-13T12:30:23.318Z,13.23
2024-03-13T12:32:53.663Z,13.19
2024-03-13T12:35:21.996Z,13.30
2024-03-13T12:37:50.986Z,13.22
2024-03-13T12:40:19.169Z,13.26
2024-03-13T12:42:48.347Z,13.36
2024-03-13T12:45:17.356Z,13.23
2024-03-13T12:47:46.120Z,13.13
2024-03-13T12:50:14.424Z,13.25
2024-03-13T12:52:43.093Z,13.35
2024-03-13T12:55:11.542Z,13.25
2024-03-13T12:57:39.594Z,13.20
2024-03-13T13:00:15.161Z,13.33
2024-03-13T13:02:46.553Z,13.57
2024-03-13T13:05:14.938Z,13.60
2024-03-13T13:07:53.085Z,13.47
2024-03-13T13:10:22.832Z,13.49
2024-03-13T13:12:51.162Z,13.54
2024-03-13T13:15:19.363Z,13.59
2024-03-13T13:17:48.430Z,13.50
2024-03-13T13:20:17.494Z,13.62
2024-03-13T13:22:46.357Z,13.63
2024-03-13T13:25:14.401Z,13.54
2024-03-13T13:27:43.886Z,13.50
2024-03-13T13:30:14.457Z,13.33
2024-03-13T13:32:42.940Z,13.29
2024-03-13T13:35:12.224Z,13.33
2024-03-13T13:37:40.656Z,13.30
2024-03-13T13:40:13.976Z,13.27
2024-03-13T13:42:42.591Z,13.26
2024-03-13T13:45:12.243Z,13.29
2024-03-13T13:47:44.637Z,13.27
2024-03-13T13:50:16.487Z,13.32
2024-03-13T13:52:45.440Z,13.27
2024-03-13T13:55:13.766Z,13.42
2024-03-13T13:57:50.377Z,13.42
2024-03-13T14:00:24.146Z,13.45
2024-03-13T14:02:54.586Z,13.43
2024-03-13T14:05:23.462Z,13.45
2024-03-13T14:07:52.873Z,13.56
2024-03-13T14:10:21.396Z,13.43
2024-03-13T14:12:50.565Z,13.36
2024-03-13T14:15:20.352Z,13.25
2024-03-13T14:17:51.513Z,13.16
2024-03-13T14:20:21.628Z,13.01
2024-03-13T14:22:54.902Z,13.02
2024-03-13T14:25:24.436Z,12.98
2024-03-13T14:27:52.647Z,12.88
2024-03-13T14:30:21.006Z,12.94
2024-03-13T14:32:49.570Z,12.85
2024-03-13T14:35:17.934Z,12.77
2024-03-13T14:37:46.091Z,12.77
2024-03-13T14:40:15.941Z,12.78
2024-03-13T14:42:46.346Z,12.82
2024-03-13T14:45:14.564Z,12.94
2024-03-13T14:47:45.595Z,12.81
2024-03-13T14:50:19.183Z,12.81
2024-03-13T14:52:55.872Z,12.85
2024-03-13T14:55:31.582Z,12.80
2024-03-13T14:57:59.671Z,12.74
2024-03-13T15:00:28.692Z,12.69
2024-03-13T15:02:59.063Z,12.71
2024-03-13T15:05:31.097Z,12.77
2024-03-13T15:08:01.765Z,12.78
2024-03-13T15:10:30.948Z,12.74
2024-03-13T15:12:59.578Z,13.01
2024-03-13T15:15:27.768Z,13.18
2024-03-13T15:17:56.147Z,13.39
2024-03-13T15:20:24.534Z,13.59
2024-03-13T15:22:52.566Z,13.59
2024-03-13T15:25:21.114Z,13.64
2024-03-13T15:27:49.293Z,13.76
2024-03-13T15:30:19.686Z,13.77
2024-03-13T15:32:48.315Z,13.71
2024-03-13T15:35:16.501Z,13.63
2024-03-13T15:37:44.737Z,13.60
2024-03-13T15:40:14.433Z,13.46
2024-03-13T15:42:42.515Z,13.40
2024-03-13T15:45:11.734Z,13.49
2024-03-13T15:47:43.143Z,13.70
2024-03-13T15:50:24.150Z,13.83
2024-03-13T15:52:57.767Z,13.95
2024-03-13T15:55:26.202Z,13.76
2024-03-13T15:57:54.268Z,13.57
2024-03-13T16:00:24.712Z,13.40
2024-03-13T16:02:54.328Z,13.23
2024-03-13T16:05:23.971Z,13.05
2024-03-13T16:07:55.288Z,13.13
2024-03-13T16:10:23.744Z,13.08
2024-03-13T16:12:51.817Z,13.29
2024-03-13T16:15:20.050Z,13.27
2024-03-13T16:17:48.436Z,12.99
2024-03-13T16:20:17.881Z,12.95
2024-03-13T16:22:47.567Z,12.92
2024-03-13T16:25:18.389Z,13.04
2024-03-13T16:27:46.615Z,13.23
2024-03-13T16:30:20.334Z,13.22
2024-03-13T16:32:49.315Z,13.29
2024-03-13T16:35:17.720Z,13.16
2024-03-13T16:37:46.650Z,13.16
2024-03-13T16:40:15.502Z,13.15
2024-03-13T16:42:43.913Z,13.01
2024-03-13T16:45:12.946Z,12.89
2024-03-13T16:47:44.242Z,12.80
2024-03-13T16:50:16.161Z,12.71
2024-03-13T16:52:44.805Z,12.65
2024-03-13T16:55:13.509Z,12.55
2024-03-13T16:57:43.181Z,12.45
2024-03-13T17:00:16.511Z,12.58
2024-03-13T17:02:46.788Z,12.57
2024-03-13T17:05:16.732Z,12.53
2024-03-13T17:07:46.350Z,12.54
2024-03-13T17:10:14.772Z,12.48
2024-03-13T17:12:42.926Z,12.43
2024-03-13T17:15:11.343Z,12.54
2024-03-13T17:17:39.459Z,12.58
2024-03-13T17:20:08.970Z,12.48
2024-03-13T17:22:38.453Z,12.47
2024-03-13T17:25:06.986Z,12.47
2024-03-13T17:27:35.248Z,12.48
2024-03-13T17:30:03.481Z,12.40
2024-03-13T17:32:31.784Z,12.38
2024-03-13T17:35:02.092Z,12.43
2024-03-13T17:37:30.767Z,12.34
2024-03-13T17:39:59.045Z,12.24
2024-03-13T17:42:27.318Z,12.26
2024-03-13T17:44:57.930Z,12.29
2024-03-13T17:47:26.169Z,12.16
2024-03-13T17:49:54.257Z,12.04
2024-03-13T17:52:22.479Z,12.00
2024-03-13T17:54:53.082Z,11.92
2024-03-13T17:57:21.571Z,11.90
2024-03-13T17:59:49.860Z,11.85
2024-03-13T18:02:19.957Z,11.79
2024-03-13T18:04:48.839Z,11.82
2024-03-13T18:07:16.934Z,11.79
2024-03-13T18:09:46.605Z,11.79
2024-03-13T18:12:14.731Z,11.78
2024-03-13T18:14:42.964Z,11.78
2024-03-13T18:17:11.102Z,11.83
2024-03-13T18:19:40.837Z,11.81
2024-03-13T18:22:09.288Z,11.73
2024-03-13T18:24:37.622Z,11.73
2024-03-13T18:27:05.760Z,11.73
2024-03-13T18:29:34.427Z,11.69
2024-03-13T18:32:03.467Z,11.68
2024-03-13T18:34:31.950Z,11.73
2024-03-13T18:37:00.399Z,11.73
2024-03-13T18:39:28.827Z,11.75
2024-03-13T18:41:56.928Z,11.72
2024-03-13T18:44:26.394Z,11.73
2024-03-13T18:46:54.850Z,11.71
2024-03-13T18:49:22.990Z,11.73
2024-03-13T18:51:52.513Z,11.72
2024-03-13T18:54:22.697Z,11.69
2024-03-13T18:56:51.619Z,11.73
2024-03-13T18:59:20.266Z,11.72
2024-03-13T19:01:48.760Z,11.79
2024-03-13T19:04:16.935Z,11.73
2024-03-13T19:06:45.894Z,11.71
2024-03-13T19:09:14.450Z,11.69
2024-03-13T19:11:43.237Z,11.65
2024-03-13T19:14:11.375Z,11.73
2024-03-13T19:16:40.878Z,11.71
2024-03-13T19:19:08.956Z,11.72
2024-03-13T19:21:39.848Z,11.71
2024-03-13T19:24:09.894Z,11.72
2024-03-13T19:26:37.910Z,11.66
2024-03-13T19:29:06.072Z,11.63
2024-03-13T19:31:39.219Z,11.63
2024-03-13T19:34:11.219Z,11.65
2024-03-13T19:36:39.463Z,11.62
2024-03-13T19:39:07.781Z,11.62
2024-03-13T19:41:36.689Z,11.59
2024-03-13T19:44:04.753Z,11.59
2024-03-13T19:46:32.849Z,11.58
2024-03-13T19:49:00.938Z,11.58
2024-03-13T19:51:29.332Z,11.57
2024-03-13T19:53:57.402Z,11.57
2024-03-13T19:56:25.720Z,11.54
2024-03-13T19:58:53.770Z,11.54
2024-03-13T20:01:22.355Z,11.52
2024-03-13T20:03:50.383Z,11.54
2024-03-13T20:06:18.432Z,11.52
2024-03-13T20:08:46.622Z,11.51
2024-03-13T20:11:14.705Z,11.49
2024-03-13T20:13:43.186Z,11.48
2024-03-13T20:16:13.249Z,11.43
2024-03-13T20:18:41.571Z,11.39
2024-03-13T20:21:09.785Z,11.41
2024-03-13T20:23:38.602Z,11.38
2024-03-13T20:26:06.616Z,11.34
2024-03-13T20:28:34.940Z,11.30
2024-03-13T20:31:05.183Z,11.20
2024-03-13T20:33:33.810Z,11.11
2024-03-13T20:36:01.986Z,11.08
2024-03-13T20:38:30.500Z,11.04
2024-03-13T20:40:59.017Z,11.07
2024-03-13T20:43:27.188Z,11.03
2024-03-13T20:45:55.200Z,11.03
2024-03-13T20:48:24.297Z,11.01
2024-03-13T20:50:52.975Z,11.07
2024-03-13T20:53:21.149Z,11.01
2024-03-13T20:55:49.572Z,10.99
2024-03-13T20:58:18.302Z,10.91
2024-03-13T21:00:46.594Z,10.85
2024-03-13T21:03:14.792Z,10.90
2024-03-13T21:05:43.072Z,10.84
2024-03-13T21:08:11.416Z,10.84
2024-03-13T21:10:41.139Z,10.81
2024-03-13T21:13:10.337Z,10.79
2024-03-13T21:15:46.024Z,10.77
2024-03-13T21:18:30.830Z,10.80
2024-03-13T21:20:59.508Z,10.81
2024-03-13T21:23:27.629Z,10.85
2024-03-13T21:25:55.788Z,10.85
2024-03-13T21:28:23.853Z,10.87
2024-03-13T21:30:52.235Z,10.90
2024-03-13T21:33:20.450Z,10.83
2024-03-13T21:35:48.887Z,10.79
2024-03-13T21:38:17.846Z,10.81
2024-03-13T21:40:46.535Z,10.83
2024-03-13T21:43:14.571Z,10.77
2024-03-13T21:45:42.965Z,10.85
2024-03-13T21:48:11.376Z,10.84
2024-03-13T21:50:39.709Z,10.84
2024-03-13T21:53:11.497Z,10.84
2024-03-13T21:55:39.635Z,10.84
2024-03-13T21:58:07.738Z,10.80
2024-03-13T22:00:35.938Z,10.77
2024-03-13T22:03:04.042Z,10.77
2024-03-13T22:05:32.696Z,10.79
2024-03-13T22:08:01.242Z,10.81
2024-03-13T22:10:29.772Z,10.79
2024-03-13T22:12:57.778Z,10.76
2024-03-13T22:15:25.871Z,10.76
2024-03-13T22:17:54.003Z,10.74
2024-03-13T22:20:22.125Z,10.74
2024-03-13T22:22:50.295Z,10.73
2024-03-13T22:25:18.296Z,10.70
2024-03-13T22:27:46.797Z,10.67
2024-03-13T22:30:14.920Z,10.69
2024-03-13T22:32:43.176Z,10.66
2024-03-13T22:35:12.049Z,10.67
2024-03-13T22:37:40.119Z,10.67
2024-03-13T22:40:12.825Z,10.64
2024-03-13T22:42:41.412Z,10.64
2024-03-13T22:45:09.875Z,10.67
2024-03-13T22:47:37.965Z,10.61
2024-03-13T22:50:06.507Z,10.61
2024-03-13T22:52:34.656Z,10.59
2024-03-13T22:55:02.635Z,10.61
2024-03-13T22:57:30.937Z,10.64
2024-03-13T22:59:59.009Z,10.59
2024-03-13T23:02:28.059Z,10.59
2024-03-13T23:04:56.881Z,10.64
2024-03-13T23:07:27.683Z,10.61
2024-03-13T23:09:55.914Z,10.60
2024-03-13T23:12:24.429Z,10.60
2024-03-13T23:14:54.510Z,10.60
2024-03-13T23:17:22.713Z,10.59
2024-03-13T23:19:50.962Z,10.64
2024-03-13T23:22:20.084Z,10.63
2024-03-13T23:24:48.109Z,10.60
2024-03-13T23:27:16.468Z,10.66
2024-03-13T23:29:45.408Z,10.61
2024-03-13T23:32:13.931Z,10.64
2024-03-13T23:34:42.394Z,10.61
2024-03-13T23:37:10.967Z,10.59
2024-03-13T23:39:39.335Z,10.59
2024-03-13T23:42:08.382Z,10.56
2024-03-13T23:44:36.786Z,10.55
2024-03-13T23:47:07.425Z,10.59
2024-03-13T23:49:36.231Z,10.59
2024-03-13T23:52:05.603Z,10.57
2024-03-13T23:54:33.711Z,10.56
2024-03-13T23:57:01.949Z,10.56
2024-03-13T23:59:30.919Z,10.57
